Time;durP1;ratioP1;P1;durP2;ratioP2;P2;SDS_P1;SDS_P2;PMS_P1;PMS_P2;Temp;Humidity;BMP_temperature;BMP_pressure;BME280_temperature;BME280_humidity;BME280_pressure;Samples;Min_cycle;Max_cycle;Signal;HPM_P1;HPM_P2
2023/05/03 00:00:48;;;;;;;;;;;;;;;18.37;62.00;98592.63;2056089;28;19926;-46
2023/05/03 00:01:48;;;;;;;;;;;;;;;18.39;62.09;98590.56;2056847;28;19987;-46
2023/05/03 00:02:52;;;;;;;;;;;;;;;18.38;62.05;98583.53;2057809;28;19938;-45
2023/05/03 00:03:53;;;;;;;;;;;;;;;18.39;62.19;98595.94;2056306;28;19952;-45
2023/05/03 00:04:56;;;;;;;;;;;;;;;18.39;62.03;98597.78;2056384;28;19932;-46
2023/05/03 00:05:56;;;;;;;;;;;;;;;18.36;62.18;98590.97;2056333;28;19930;-46
2023/05/03 00:06:57;;;;;;;;;;;;;;;18.38;61.95;98599.63;2058179;28;20447;-46
2023/05/03 00:07:59;;;;;;;;;;;;;;;18.37;61.91;98600.66;2059015;28;19934;-45
2023/05/03 00:09:02;;;;;;;;;;;;;;;18.38;61.86;98593.44;2055044;28;19941;-48
2023/05/03 00:10:03;;;;;;;;;;;;;;;18.37;62.13;98589.94;2059655;28;19975;-47
2023/05/03 00:11:04;;;;;;;;;;;;;;;18.36;62.12;98590.13;2057727;28;20016;-45
2023/05/03 00:12:05;;;;;;;;;;;;;;;18.37;62.13;98598.00;2056129;28;19988;-46
2023/05/03 00:13:06;;;;;;;;;;;;;;;18.36;61.67;98596.34;2058227;28;19933;-45
2023/05/03 00:14:07;;;;;;;;;;;;;;;18.36;62.06;98593.66;2057828;28;20327;-47
2023/05/03 00:15:09;;;;;;;;;;;;;;;18.35;62.16;98591.97;2057858;28;19930;-49
2023/05/03 00:16:10;;;;;;;;;;;;;;;18.35;61.87;98600.03;2057184;28;20354;-46
2023/05/03 00:17:11;;;;;;;;;;;;;;;18.36;62.03;98592.81;2056742;28;19992;-47
2023/05/03 00:18:12;;;;;;;;;;;;;;;18.36;61.87;98598.19;2057172;28;19980;-45
2023/05/03 00:19:13;;;;;;;;;;;;;;;18.37;61.92;98594.47;2056008;28;19929;-45
2023/05/03 00:20:14;;;;;;;;;;;;;;;18.36;61.84;98600.88;2058159;28;19930;-46
2023/05/03 00:21:16;;;;;;;;;;;;;;;18.35;61.83;98594.66;2057604;28;20269;-45
2023/05/03 00:22:16;;;;;;;;;;;;;;;18.36;61.93;98590.97;2057595;28;20415;-45
2023/05/03 00:23:18;;;;;;;;;;;;;;;18.36;62.23;98596.34;2056393;28;19926;-46
2023/05/03 00:24:20;;;;;;;;;;;;;;;18.35;61.96;98597.34;2058190;28;19984;-47
2023/05/03 00:25:21;;;;;;;;;;;;;;;18.35;62.07;98594.66;2056957;28;20329;-45
2023/05/03 00:26:22;;;;;;;;;;;;;;;18.35;61.92;98589.28;2057712;28;20400;-47
2023/05/03 00:27:24;;;;;;;;;;;;;;;18.35;61.80;98591.97;2056642;28;19930;-47
2023/05/03 00:28:25;;;;;;;;;;;;;;;18.36;61.96;98585.59;2059178;28;19929;-46
2023/05/03 00:29:26;;;;;;;;;;;;;;;18.35;61.99;98593.84;2055647;28;20511;-45
2023/05/03 00:30:27;;;;;;;;;;;;;;;18.34;61.79;98598.41;2058494;28;20039;-45
2023/05/03 00:31:28;;;;;;;;;;;;;;;18.34;62.11;98593.03;2057134;28;20392;-47
2023/05/03 00:32:29;;;;;;;;;;;;;;;18.33;62.04;98591.38;2057526;28;19984;-49
2023/05/03 00:33:30;;;;;;;;;;;;;;;18.34;61.76;98593.03;2055898;28;20016;-48
2023/05/03 00:34:31;;;;;;;;;;;;;;;18.34;62.04;98593.03;2057556;28;19933;-46
2023/05/03 00:35:32;;;;;;;;;;;;;;;18.34;61.81;98595.72;2055713;28;20353;-47
2023/05/03 00:36:32;;;;;;;;;;;;;;;18.34;62.03;98589.53;2056847;28;19938;-49
2023/05/03 00:37:35;;;;;;;;;;;;;;;18.33;62.06;98596.75;2057379;28;20367;-47
2023/05/03 00:38:35;;;;;;;;;;;;;;;18.35;62.06;98599.22;2056873;28;19961;-46
2023/05/03 00:39:38;;;;;;;;;;;;;;;18.33;61.87;98596.75;2057566;28;19930;-46
2023/05/03 00:40:38;;;;;;;;;;;;;;;18.32;61.87;98595.06;2057834;28;20477;-46
2023/05/03 00:41:40;;;;;;;;;;;;;;;18.33;61.65;98606.63;2057303;28;19976;-46
2023/05/03 00:42:40;;;;;;;;;;;;;;;18.33;61.72;98599.44;2057641;28;19934;-46
2023/05/03 00:43:42;;;;;;;;;;;;;;;18.34;62.04;98608.31;2057040;28;19925;-46
2023/05/03 00:44:42;;;;;;;;;;;;;;;18.33;61.98;98602.13;2056005;28;20011;-47
2023/05/03 00:45:45;;;;;;;;;;;;;;;18.33;61.72;98612.88;2056691;28;19945;-45
2023/05/03 00:46:45;;;;;;;;;;;;;;;18.32;61.76;98600.44;2056511;28;20013;-45
2023/05/03 00:47:47;;;;;;;;;;;;;;;18.32;61.84;98595.06;2058628;28;19934;-45
2023/05/03 00:48:48;;;;;;;;;;;;;;;18.31;61.87;98596.94;2056340;28;19952;-45
2023/05/03 00:49:49;;;;;;;;;;;;;;;18.33;61.87;98601.28;2056555;28;19937;-45
2023/05/03 00:50:50;;;;;;;;;;;;;;;18.32;61.77;98592.38;2057604;28;19934;-44
2023/05/03 00:51:53;;;;;;;;;;;;;;;18.32;61.87;98597.75;2054812;28;20022;-50
2023/05/03 00:52:53;;;;;;;;;;;;;;;18.30;61.89;98595.28;2056853;28;20479;-48
2023/05/03 00:53:56;;;;;;;;;;;;;;;18.30;62.07;98597.97;2056924;28;19926;-48
2023/05/03 00:54:58;;;;;;;;;;;;;;;18.31;61.83;98593.44;2056080;28;20950;-44
2023/05/03 00:56:00;;;;;;;;;;;;;;;18.30;61.86;98589.06;2056630;28;20376;-46
2023/05/03 00:57:03;;;;;;;;;;;;;;;18.30;62.08;98586.38;2055486;28;19938;-48
2023/05/03 00:58:04;;;;;;;;;;;;;;;18.30;61.99;98594.44;2055346;28;20363;-51
2023/05/03 00:59:05;;;;;;;;;;;;;;;18.32;62.05;98597.75;2055598;28;19980;-47
2023/05/03 01:00:08;;;;;;;;;;;;;;;18.29;61.83;98590.94;2047580;28;19977;-46
2023/05/03 01:01:08;;;;;;;;;;;;;;;18.30;61.90;98591.75;2055833;28;19930;-47
2023/05/03 01:02:10;;;;;;;;;;;;;;;18.30;61.87;98589.06;2056306;28;19933;-45
2023/05/03 01:03:10;;;;;;;;;;;;;;;18.30;61.81;98589.06;2056714;28;20034;-44
2023/05/03 01:04:12;;;;;;;;;;;;;;;18.29;61.91;98580.19;2056351;28;19941;-48
2023/05/03 01:05:13;;;;;;;;;;;;;;;18.29;61.94;98582.06;2056634;28;19958;-47
2023/05/03 01:06:17;;;;;;;;;;;;;;;18.30;61.94;98583.69;2053394;28;19930;-52
2023/05/03 01:07:23;;;;;;;;;;;;;;;18.29;61.76;98579.38;2057216;28;20012;-46
2023/05/03 01:08:28;;;;;;;;;;;;;;;18.28;61.83;98581.25;2056893;28;19930;-50
2023/05/03 01:09:33;;;;;;;;;;;;;;;18.29;61.89;98579.38;2056085;28;20380;-52
2023/05/03 01:10:38;;;;;;;;;;;;;;;18.29;62.02;98571.31;2056223;28;20347;-45
2023/05/03 01:11:46;;;;;;;;;;;;;;;18.29;61.82;98582.88;2057674;28;19980;-46
2023/05/03 01:12:52;;;;;;;;;;;;;;;18.29;61.78;98579.38;2055936;28;20049;-50
2023/05/03 01:13:56;;;;;;;;;;;;;;;18.27;62.05;98576.88;2057597;28;19961;-47
2023/05/03 01:15:02;;;;;;;;;;;;;;;18.28;62.05;98583.94;2056243;28;19925;-52
2023/05/03 01:16:08;;;;;;;;;;;;;;;18.29;61.70;98574.00;2054961;28;19940;-47
2023/05/03 01:17:11;;;;;;;;;;;;;;;18.27;61.97;98568.00;2055978;28;20463;-49
2023/05/03 01:18:15;;;;;;;;;;;;;;;18.28;61.70;98578.56;2048579;28;19937;-50
2023/05/03 01:19:22;;;;;;;;;;;;;;;18.27;61.96;98576.06;2055545;28;19930;-47
2023/05/03 01:20:24;;;;;;;;;;;;;;;18.27;61.75;98571.50;2055714;28;19933;-51
2023/05/03 01:21:25;;;;;;;;;;;;;;;18.29;61.85;98580.19;2057388;28;19929;-49
2023/05/03 01:22:32;;;;;;;;;;;;;;;18.28;61.80;98567.00;2055925;28;20016;-47
2023/05/03 01:23:40;;;;;;;;;;;;;;;18.28;62.02;98573.19;2056109;28;19926;-55
2023/05/03 01:24:41;;;;;;;;;;;;;;;18.28;61.91;98567.00;2055200;28;20407;-46
2023/05/03 01:25:44;;;;;;;;;;;;;;;18.27;61.78;98570.69;2055608;28;19930;-47
2023/05/03 01:26:44;;;;;;;;;;;;;;;18.27;62.13;98573.38;2056388;28;19961;-45
2023/05/03 01:27:46;;;;;;;;;;;;;;;18.27;61.72;98568.00;2056907;28;19926;-53
2023/05/03 01:28:46;;;;;;;;;;;;;;;18.27;61.92;98582.25;2055890;28;19976;-45
2023/05/03 01:29:48;;;;;;;;;;;;;;;18.28;61.77;98575.03;2057484;28;19934;-48
2023/05/03 01:30:50;;;;;;;;;;;;;;;18.27;61.99;98578.75;2053106;28;19926;-52
2023/05/03 01:31:54;;;;;;;;;;;;;;;18.27;61.89;98579.56;2057904;28;19930;-49
2023/05/03 01:33:01;;;;;;;;;;;;;;;18.26;61.91;98580.59;2054834;28;19926;-49
2023/05/03 01:34:13;;;;;;;;;;;;;;;18.25;62.06;98578.13;2054846;28;19937;-54
2023/05/03 01:35:19;;;;;;;;;;;;;;;18.27;61.60;98584.13;2056332;28;19937;-53
2023/05/03 01:36:22;;;;;;;;;;;;;;;18.28;61.86;98583.09;2056011;28;20304;-45
2023/05/03 01:37:23;;;;;;;;;;;;;;;18.26;61.88;98577.91;2055535;28;20389;-47
2023/05/03 01:38:24;;;;;;;;;;;;;;;18.26;61.78;98577.91;2055801;28;19993;-52
2023/05/03 01:39:29;;;;;;;;;;;;;;;18.27;61.97;98584.94;2055319;28;19984;-53
2023/05/03 01:40:31;;;;;;;;;;;;;;;18.26;61.73;98585.97;2056436;28;19933;-51
2023/05/03 01:41:34;;;;;;;;;;;;;;;18.25;61.84;98587.00;2054626;28;20667;-46
2023/05/03 01:42:35;;;;;;;;;;;;;;;18.25;61.80;98587.00;2054707;28;19930;-50
2023/05/03 01:43:37;;;;;;;;;;;;;;;18.25;61.97;98578.13;2054220;28;19930;-53
2023/05/03 01:44:38;;;;;;;;;;;;;;;18.25;62.03;98584.34;2056597;28;19930;-47
2023/05/03 01:45:40;;;;;;;;;;;;;;;18.26;61.92;98585.16;2056923;28;20384;-48
2023/05/03 01:46:41;;;;;;;;;;;;;;;18.24;61.88;98582.66;2055283;28;19976;-49
2023/05/03 01:47:43;;;;;;;;;;;;;;;18.25;61.74;98583.50;2055401;28;19930;-48
2023/05/03 01:48:43;;;;;;;;;;;;;;;18.25;61.97;98587.00;2057565;28;20390;-45
2023/05/03 01:49:44;;;;;;;;;;;;;;;18.25;61.80;98580.81;2056681;28;19934;-49
2023/05/03 01:50:45;;;;;;;;;;;;;;;18.25;61.80;98586.19;2054520;28;19988;-45
2023/05/03 01:51:47;;;;;;;;;;;;;;;18.25;61.78;98584.34;2053612;28;19934;-48
2023/05/03 01:52:50;;;;;;;;;;;;;;;18.25;62.00;98575.47;2055120;28;19953;-52
2023/05/03 01:53:51;;;;;;;;;;;;;;;18.24;61.76;98582.66;2055052;28;19997;-51
2023/05/03 01:54:51;;;;;;;;;;;;;;;18.25;61.74;98575.47;2057111;28;19926;-51
2023/05/03 01:55:53;;;;;;;;;;;;;;;18.24;61.93;98573.78;2055436;28;19988;-48
2023/05/03 01:56:55;;;;;;;;;;;;;;;18.23;62.04;98578.31;2056873;28;20942;-47
2023/05/03 01:57:56;;;;;;;;;;;;;;;18.24;61.76;98581.84;2054394;28;19933;-49
2023/05/03 01:58:57;;;;;;;;;;;;;;;18.23;61.98;98575.66;2055492;28;19930;-47
2023/05/03 01:59:58;;;;;;;;;;;;;;;18.23;61.70;98581.00;2055168;28;19926;-50
2023/05/03 02:00:58;;;;;;;;;;;;;;;18.23;61.99;98575.66;2055943;28;19933;-50
2023/05/03 02:02:00;;;;;;;;;;;;;;;18.23;61.91;98574.81;2058330;28;20399;-48
2023/05/03 02:03:00;;;;;;;;;;;;;;;18.24;62.01;98579.16;2057233;28;19991;-47
2023/05/03 02:04:02;;;;;;;;;;;;;;;18.23;61.99;98581.00;2057651;28;19997;-53
2023/05/03 02:05:04;;;;;;;;;;;;;;;18.23;61.77;98581.00;2057020;28;20435;-54
2023/05/03 02:06:05;;;;;;;;;;;;;;;18.23;61.73;98583.69;2057207;28;19926;-46
2023/05/03 02:07:06;;;;;;;;;;;;;;;18.22;61.73;98579.38;2058368;28;19933;-49
2023/05/03 02:08:07;;;;;;;;;;;;;;;18.21;61.78;98572.31;2056445;28;20573;-48
2023/05/03 02:09:08;;;;;;;;;;;;;;;18.22;61.73;98574.00;2056981;28;19941;-48
2023/05/03 02:10:13;;;;;;;;;;;;;;;18.23;61.71;98580.19;2058698;28;19929;-45
2023/05/03 02:11:13;;;;;;;;;;;;;;;18.22;61.73;98581.19;2058094;28;20515;-51
2023/05/03 02:12:16;;;;;;;;;;;;;;;18.22;61.88;98583.88;2057299;28;19932;-52
2023/05/03 02:13:17;;;;;;;;;;;;;;;18.23;61.57;98586.38;2057859;28;19933;-49
2023/05/03 02:14:18;;;;;;;;;;;;;;;18.22;61.86;98579.38;2057662;28;20471;-48
2023/05/03 02:15:19;;;;;;;;;;;;;;;18.21;61.86;98579.56;2057811;28;19996;-47
2023/05/03 02:16:20;;;;;;;;;;;;;;;18.21;61.83;98579.56;2056797;28;20331;-46
2023/05/03 02:17:20;;;;;;;;;;;;;;;18.21;61.91;98582.25;2057142;28;19930;-48
2023/05/03 02:18:22;;;;;;;;;;;;;;;18.22;61.83;98583.88;2058091;28;20020;-47
2023/05/03 02:19:23;;;;;;;;;;;;;;;18.21;61.74;98582.25;2057353;28;20017;-49
2023/05/03 02:20:24;;;;;;;;;;;;;;;18.22;61.95;98594.63;2059167;28;20538;-45
2023/05/03 02:21:25;;;;;;;;;;;;;;;18.21;62.01;98587.63;2058410;28;20322;-48
2023/05/03 02:22:26;;;;;;;;;;;;;;;18.21;61.95;98582.25;2057229;28;19929;-45
2023/05/03 02:23:26;;;;;;;;;;;;;;;18.21;61.84;98592.97;2056751;28;19976;-49
2023/05/03 02:24:30;;;;;;;;;;;;;;;18.22;61.94;98589.25;2058196;28;19985;-48
2023/05/03 02:25:30;;;;;;;;;;;;;;;18.20;61.74;98578.72;2056241;28;19940;-51
2023/05/03 02:26:32;;;;;;;;;;;;;;;18.21;62.08;98582.25;2056588;28;19946;-52
2023/05/03 02:27:34;;;;;;;;;;;;;;;18.20;62.06;98585.97;2056899;28;19980;-46
2023/05/03 02:28:35;;;;;;;;;;;;;;;18.20;61.91;98586.78;2057580;28;19926;-46
2023/05/03 02:29:36;;;;;;;;;;;;;;;18.21;61.93;98592.97;2056738;28;19926;-46
2023/05/03 02:30:37;;;;;;;;;;;;;;;18.22;61.85;98584.75;2057816;28;20387;-49
2023/05/03 02:31:37;;;;;;;;;;;;;;;18.21;61.85;98576.88;2055785;28;20008;-48
2023/05/03 02:32:39;;;;;;;;;;;;;;;18.21;61.68;98577.69;2060490;28;19929;-45
2023/05/03 02:33:40;;;;;;;;;;;;;;;18.20;61.94;98580.59;2056161;28;19938;-46
2023/05/03 02:34:41;;;;;;;;;;;;;;;18.20;62.00;98578.72;2057789;28;19960;-46
2023/05/03 02:35:42;;;;;;;;;;;;;;;18.19;61.95;98579.78;2057011;28;19930;-46
2023/05/03 02:36:43;;;;;;;;;;;;;;;18.20;61.95;98577.91;2058578;28;19930;-45
2023/05/03 02:37:44;;;;;;;;;;;;;;;18.20;61.93;98580.59;2057101;28;19941;-46
2023/05/03 02:38:45;;;;;;;;;;;;;;;18.20;61.83;98573.38;2057491;28;19941;-46
2023/05/03 02:39:45;;;;;;;;;;;;;;;18.18;61.70;98572.72;2056409;28;19981;-49
2023/05/03 02:40:47;;;;;;;;;;;;;;;18.18;61.95;98570.06;2058900;28;19934;-46
2023/05/03 02:41:47;;;;;;;;;;;;;;;18.19;61.70;98568.19;2056904;28;19930;-46
2023/05/03 02:42:50;;;;;;;;;;;;;;;18.18;61.80;98562.00;2057768;28;20862;-46
2023/05/03 02:43:52;;;;;;;;;;;;;;;18.19;61.50;98569.03;2056967;28;19933;-48
2023/05/03 02:44:52;;;;;;;;;;;;;;;18.17;61.78;98563.03;2058523;28;20342;-47
2023/05/03 02:45:54;;;;;;;;;;;;;;;18.21;61.84;98571.50;2056387;28;19976;-46
2023/05/03 02:46:54;;;;;;;;;;;;;;;18.19;61.63;98569.03;2057472;28;19930;-46
2023/05/03 02:47:56;;;;;;;;;;;;;;;18.19;61.80;98565.50;2058274;28;19926;-48
2023/05/03 02:48:56;;;;;;;;;;;;;;;18.18;61.89;98572.72;2057937;28;19930;-46
2023/05/03 02:49:58;;;;;;;;;;;;;;;18.18;61.78;98571.91;2055888;28;19930;-45
2023/05/03 02:50:58;;;;;;;;;;;;;;;18.19;61.70;98568.19;2056943;28;19976;-46
2023/05/03 02:52:00;;;;;;;;;;;;;;;18.19;61.67;98568.19;2057874;28;19930;-47
2023/05/03 02:53:00;;;;;;;;;;;;;;;18.19;61.64;98565.50;2057845;28;19933;-46
2023/05/03 02:54:02;;;;;;;;;;;;;;;18.18;61.69;98561.19;2058453;28;20438;-49
2023/05/03 02:55:02;;;;;;;;;;;;;;;18.19;61.79;98568.19;2056894;28;19929;-46
2023/05/03 02:56:04;;;;;;;;;;;;;;;18.18;61.91;98578.09;2056978;28;19940;-45
2023/05/03 02:57:05;;;;;;;;;;;;;;;18.19;61.81;98576.25;2057671;28;20391;-46
2023/05/03 02:58:08;;;;;;;;;;;;;;;18.17;61.62;98567.59;2056692;28;19940;-46
2023/05/03 02:59:09;;;;;;;;;;;;;;;18.17;61.86;98573.78;2056492;28;19926;-45
2023/05/03 03:00:14;;;;;;;;;;;;;;;18.17;61.74;98571.09;2057378;28;19970;-46
2023/05/03 03:01:14;;;;;;;;;;;;;;;18.17;61.79;98570.28;2057290;28;19932;-46
2023/05/03 03:02:16;;;;;;;;;;;;;;;18.17;61.70;98565.72;2057055;28;19933;-45
2023/05/03 03:03:16;;;;;;;;;;;;;;;18.18;61.92;98571.91;2058008;28;19930;-47
2023/05/03 03:04:18;;;;;;;;;;;;;;;18.17;61.80;98571.09;2057911;28;19925;-45
2023/05/03 03:05:18;;;;;;;;;;;;;;;18.15;62.06;98567.78;2057375;28;19937;-46
2023/05/03 03:06:20;;;;;;;;;;;;;;;18.17;61.73;98567.59;2057233;28;19937;-46
2023/05/03 03:07:20;;;;;;;;;;;;;;;18.18;61.89;98577.28;2056248;28;22065;-47
2023/05/03 03:08:22;;;;;;;;;;;;;;;18.16;61.93;98573.97;2057407;28;19937;-45
2023/05/03 03:09:23;;;;;;;;;;;;;;;18.17;61.84;98572.94;2057511;28;20357;-46
2023/05/03 03:10:24;;;;;;;;;;;;;;;18.15;61.89;98569.63;2057572;28;19934;-51
2023/05/03 03:11:25;;;;;;;;;;;;;;;18.14;62.01;98570.69;2057052;28;20356;-47
2023/05/03 03:12:27;;;;;;;;;;;;;;;18.14;61.99;98576.03;2058342;28;19929;-46
2023/05/03 03:13:29;;;;;;;;;;;;;;;18.14;61.88;98579.56;2057562;28;19934;-47
2023/05/03 03:14:31;;;;;;;;;;;;;;;18.14;61.88;98565.31;2057042;28;19971;-47
2023/05/03 03:15:31;;;;;;;;;;;;;;;18.15;61.76;98578.50;2056216;28;20003;-46
2023/05/03 03:16:32;;;;;;;;;;;;;;;18.15;61.62;98573.13;2055891;28;19934;-48
2023/05/03 03:17:37;;;;;;;;;;;;;;;18.14;62.00;98576.88;2057876;28;19938;-48
2023/05/03 03:18:38;;;;;;;;;;;;;;;18.15;61.62;98572.31;2057438;28;19961;-45
2023/05/03 03:19:39;;;;;;;;;;;;;;;18.14;61.99;98584.09;2057832;28;20055;-47
2023/05/03 03:20:40;;;;;;;;;;;;;;;18.15;61.86;98588.44;2056610;28;19969;-48
2023/05/03 03:21:41;;;;;;;;;;;;;;;18.14;61.68;98570.69;2056961;28;19950;-46
2023/05/03 03:22:44;;;;;;;;;;;;;;;18.15;61.88;98580.38;2055713;28;19934;-46
2023/05/03 03:23:44;;;;;;;;;;;;;;;18.15;61.96;98577.69;2055659;28;19934;-46
2023/05/03 03:24:46;;;;;;;;;;;;;;;18.14;61.85;98576.03;2057081;28;20043;-47
2023/05/03 03:25:46;;;;;;;;;;;;;;;18.14;61.66;98576.88;2056198;28;19934;-45
2023/05/03 03:26:48;;;;;;;;;;;;;;;18.14;61.82;98576.03;2056765;28;20028;-45
2023/05/03 03:27:48;;;;;;;;;;;;;;;18.14;61.83;98570.69;2055139;28;19984;-46
2023/05/03 03:28:51;;;;;;;;;;;;;;;18.14;61.85;98570.69;2058411;28;19934;-48
2023/05/03 03:29:51;;;;;;;;;;;;;;;18.15;61.88;98585.75;2057128;28;19930;-45
2023/05/03 03:30:53;;;;;;;;;;;;;;;18.13;61.86;98574.38;2058172;28;20017;-46
2023/05/03 03:31:53;;;;;;;;;;;;;;;18.14;61.83;98584.09;2058156;28;19983;-47
2023/05/03 03:32:54;;;;;;;;;;;;;;;18.14;61.61;98568.00;2057520;28;20814;-48
2023/05/03 03:33:55;;;;;;;;;;;;;;;18.14;62.12;98576.88;2058641;28;20392;-47
2023/05/03 03:34:56;;;;;;;;;;;;;;;18.14;61.73;98563.44;2057335;28;19926;-50
2023/05/03 03:35:57;;;;;;;;;;;;;;;18.14;61.70;98576.03;2057003;28;20482;-46
2023/05/03 03:36:58;;;;;;;;;;;;;;;18.14;61.65;98571.50;2057633;28;19930;-49
2023/05/03 03:37:59;;;;;;;;;;;;;;;18.13;61.69;98580.56;2056734;28;19930;-46
2023/05/03 03:39:00;;;;;;;;;;;;;;;18.14;61.87;98584.09;2058080;28;19926;-46
2023/05/03 03:40:01;;;;;;;;;;;;;;;18.13;61.78;98577.06;2055922;28;19934;-47
2023/05/03 03:41:02;;;;;;;;;;;;;;;18.14;61.78;98581.41;2057134;28;19930;-48
2023/05/03 03:42:02;;;;;;;;;;;;;;;18.13;61.66;98580.56;2055477;28;20315;-44
2023/05/03 03:43:04;;;;;;;;;;;;;;;18.13;61.79;98569.81;2053048;28;19933;-48
2023/05/03 03:44:06;;;;;;;;;;;;;;;18.14;61.61;98584.09;2056692;28;19984;-47
2023/05/03 03:45:08;;;;;;;;;;;;;;;18.12;61.65;98578.91;2055979;28;19984;-48
2023/05/03 03:46:08;;;;;;;;;;;;;;;18.13;61.65;98590.47;2053637;28;20015;-45
2023/05/03 03:47:10;;;;;;;;;;;;;;;18.12;61.83;98578.91;2054187;28;19968;-47
2023/05/03 03:48:10;;;;;;;;;;;;;;;18.11;61.71;98582.66;2058320;28;19938;-44
2023/05/03 03:49:12;;;;;;;;;;;;;;;18.11;61.77;98579.09;2056413;28;19951;-46
2023/05/03 03:50:12;;;;;;;;;;;;;;;18.11;61.62;98576.41;2055215;28;20112;-45
2023/05/03 03:51:13;;;;;;;;;;;;;;;18.12;61.63;98583.47;2055513;28;20363;-47
2023/05/03 03:52:14;;;;;;;;;;;;;;;18.11;61.87;98587.16;2053783;28;19987;-45
2023/05/03 03:53:15;;;;;;;;;;;;;;;18.12;61.62;98586.16;2053222;28;19976;-45
2023/05/03 03:54:16;;;;;;;;;;;;;;;18.12;61.71;98578.09;2054812;28;19933;-48
2023/05/03 03:55:17;;;;;;;;;;;;;;;18.11;61.78;98584.47;2055090;28;22280;-48
2023/05/03 03:56:18;;;;;;;;;;;;;;;18.09;61.79;98580.16;2055624;28;19987;-48
2023/05/03 03:57:19;;;;;;;;;;;;;;;18.09;61.73;98580.16;2055063;28;20372;-48
2023/05/03 03:58:20;;;;;;;;;;;;;;;18.10;61.85;98583.66;2055329;28;19976;-50
2023/05/03 03:59:23;;;;;;;;;;;;;;;18.10;61.77;98575.59;2053542;28;19934;-47
2023/05/03 04:00:24;;;;;;;;;;;;;;;18.11;61.69;98579.09;2054514;28;19949;-51
2023/05/03 04:01:26;;;;;;;;;;;;;;;18.11;61.81;98584.47;2054659;28;19953;-49
2023/05/03 04:02:27;;;;;;;;;;;;;;;18.09;61.67;98580.16;2056374;28;19988;-47
2023/05/03 04:03:28;;;;;;;;;;;;;;;18.10;61.86;98591.69;2053879;28;20446;-46
2023/05/03 04:04:30;;;;;;;;;;;;;;;18.12;61.85;98591.50;2054738;28;20507;-52
2023/05/03 04:05:31;;;;;;;;;;;;;;;18.11;61.88;98592.53;2054564;28;19972;-48
2023/05/03 04:06:32;;;;;;;;;;;;;;;18.11;61.79;98589.84;2055957;28;20486;-49
2023/05/03 04:07:33;;;;;;;;;;;;;;;18.09;61.82;98593.56;2054490;28;19930;-48
2023/05/03 04:08:34;;;;;;;;;;;;;;;18.11;61.79;98587.16;2054217;28;19925;-45
2023/05/03 04:09:35;;;;;;;;;;;;;;;18.11;61.73;98592.53;2055901;28;20005;-47
2023/05/03 04:10:36;;;;;;;;;;;;;;;18.11;61.61;98587.16;2056955;28;20527;-46
2023/05/03 04:11:37;;;;;;;;;;;;;;;18.11;61.56;98587.16;2054555;28;20069;-48
2023/05/03 04:12:38;;;;;;;;;;;;;;;18.10;61.84;98589.03;2054997;28;19972;-47
2023/05/03 04:13:39;;;;;;;;;;;;;;;18.09;61.80;98596.25;2054668;28;19934;-48
2023/05/03 04:14:41;;;;;;;;;;;;;;;18.11;61.56;98598.75;2055007;28;19948;-49
2023/05/03 04:15:43;;;;;;;;;;;;;;;18.11;61.79;98597.91;2051259;28;19991;-51
2023/05/03 04:16:44;;;;;;;;;;;;;;;18.11;61.78;98601.44;2054000;28;20327;-48
2023/05/03 04:17:45;;;;;;;;;;;;;;;18.10;61.85;98599.75;2053113;28;20454;-48
2023/05/03 04:18:46;;;;;;;;;;;;;;;18.10;61.69;98599.75;2055337;28;19938;-45
2023/05/03 04:19:47;;;;;;;;;;;;;;;18.11;61.86;98608.63;2054846;28;19930;-46
2023/05/03 04:20:48;;;;;;;;;;;;;;;18.10;61.59;98607.81;2055180;28;20330;-45
2023/05/03 04:21:48;;;;;;;;;;;;;;;18.09;61.73;98606.97;2054543;28;19973;-52
2023/05/03 04:22:50;;;;;;;;;;;;;;;18.08;61.66;98605.34;2055631;28;19941;-47
2023/05/03 04:23:51;;;;;;;;;;;;;;;18.10;61.61;98607.81;2051487;28;20485;-48
2023/05/03 04:24:53;;;;;;;;;;;;;;;18.10;61.78;98605.13;2053285;28;19984;-49
2023/05/03 04:25:56;;;;;;;;;;;;;;;18.11;61.72;98608.63;2053935;28;19930;-48
2023/05/03 04:27:00;;;;;;;;;;;;;;;18.09;61.69;98598.13;2055044;28;20001;-53
2023/05/03 04:28:01;;;;;;;;;;;;;;;18.07;61.85;98608.22;2055052;28;19988;-47
2023/05/03 04:29:03;;;;;;;;;;;;;;;18.07;61.83;98609.03;2056077;28;19930;-49
2023/05/03 04:30:06;;;;;;;;;;;;;;;18.08;61.79;98605.34;2055782;28;19937;-51
2023/05/03 04:31:08;;;;;;;;;;;;;;;18.08;61.63;98610.72;2053589;28;19929;-45
2023/05/03 04:32:10;;;;;;;;;;;;;;;18.09;61.57;98616.91;2055928;28;19980;-49
2023/05/03 04:33:11;;;;;;;;;;;;;;;18.09;61.63;98611.53;2055518;28;19965;-54
2023/05/03 04:34:14;;;;;;;;;;;;;;;18.08;61.57;98615.25;2055731;28;19933;-47
2023/05/03 04:35:17;;;;;;;;;;;;;;;18.07;61.65;98609.03;2055845;28;19972;-49
2023/05/03 04:36:17;;;;;;;;;;;;;;;18.08;61.61;98623.31;2053667;28;19961;-48
2023/05/03 04:37:19;;;;;;;;;;;;;;;18.09;61.64;98633.00;2056468;28;19929;-45
2023/05/03 04:38:20;;;;;;;;;;;;;;;18.08;61.79;98642.91;2055483;28;21294;-47
2023/05/03 04:39:21;;;;;;;;;;;;;;;18.08;61.82;98626.00;2056266;28;19934;-47
2023/05/03 04:40:22;;;;;;;;;;;;;;;18.07;61.74;98627.81;2052325;28;19938;-48
2023/05/03 04:41:23;;;;;;;;;;;;;;;18.07;61.48;98630.50;2057045;28;19934;-49
2023/05/03 04:42:24;;;;;;;;;;;;;;;18.08;61.68;98632.19;2056963;28;19926;-51
2023/05/03 04:43:26;;;;;;;;;;;;;;;18.09;61.61;98638.38;2053883;28;20084;-50
2023/05/03 04:44:26;;;;;;;;;;;;;;;18.08;61.55;98634.88;2054462;28;19938;-48
2023/05/03 04:45:29;;;;;;;;;;;;;;;18.07;61.77;98643.09;2053055;28;19938;-53
2023/05/03 04:46:30;;;;;;;;;;;;;;;18.09;61.44;98641.06;2055714;28;19926;-53
2023/05/03 04:47:31;;;;;;;;;;;;;;;18.06;61.55;98644.97;2049786;28;19938;-48
2023/05/03 04:48:33;;;;;;;;;;;;;;;18.06;61.62;98646.81;2053439;28;20289;-50
2023/05/03 04:49:33;;;;;;;;;;;;;;;18.06;61.64;98650.34;2052035;28;20017;-46
2023/05/03 04:50:35;;;;;;;;;;;;;;;18.05;61.72;98651.38;2056360;28;19933;-51
2023/05/03 04:51:35;;;;;;;;;;;;;;;18.07;61.77;98653.84;2056441;28;19933;-48
2023/05/03 04:52:36;;;;;;;;;;;;;;;18.06;61.69;98661.06;2055097;28;19937;-53
2023/05/03 04:53:37;;;;;;;;;;;;;;;18.05;61.74;98653.19;2054800;28;19929;-51
2023/05/03 04:54:38;;;;;;;;;;;;;;;18.06;61.85;98661.06;2053993;28;19965;-53
2023/05/03 04:55:39;;;;;;;;;;;;;;;18.06;61.65;98662.94;2055016;28;19976;-55
2023/05/03 04:56:40;;;;;;;;;;;;;;;18.07;61.72;98667.25;2054887;28;20367;-55
2023/05/03 04:57:41;;;;;;;;;;;;;;;18.07;61.58;98672.63;2056338;28;19973;-48
2023/05/03 04:58:43;;;;;;;;;;;;;;;18.06;61.78;98669.13;2056418;28;19941;-45
2023/05/03 04:59:43;;;;;;;;;;;;;;;18.07;61.73;98673.44;2056011;28;19926;-45
2023/05/03 05:00:46;;;;;;;;;;;;;;;18.07;61.48;98678.00;2056022;28;19942;-48
2023/05/03 05:01:48;;;;;;;;;;;;;;;18.07;61.62;98675.31;2055401;28;19925;-51
2023/05/03 05:02:48;;;;;;;;;;;;;;;18.06;61.76;98687.91;2056759;28;20344;-52
2023/05/03 05:03:50;;;;;;;;;;;;;;;18.07;61.54;98691.41;2057121;28;19933;-48
2023/05/03 05:04:50;;;;;;;;;;;;;;;18.05;61.75;98685.41;2055448;28;19933;-49
2023/05/03 05:05:51;;;;;;;;;;;;;;;18.05;61.64;98693.47;2054991;28;19972;-48
2023/05/03 05:06:52;;;;;;;;;;;;;;;18.05;61.79;98690.78;2056582;28;20298;-45
2023/05/03 05:07:54;;;;;;;;;;;;;;;18.05;61.75;98699.69;2056558;28;19933;-48
2023/05/03 05:08:54;;;;;;;;;;;;;;;18.04;61.80;98698.00;2055816;28;20336;-47
2023/05/03 05:09:55;;;;;;;;;;;;;;;18.04;61.78;98700.69;2054636;28;19934;-52
2023/05/03 05:10:56;;;;;;;;;;;;;;;18.04;61.70;98703.38;2054314;28;19926;-47
2023/05/03 05:11:58;;;;;;;;;;;;;;;18.06;61.74;98700.50;2057093;28;20367;-48
2023/05/03 05:12:58;;;;;;;;;;;;;;;18.04;61.70;98705.22;2057220;28;19934;-52
2023/05/03 05:14:00;;;;;;;;;;;;;;;18.05;61.56;98705.06;2055894;28;19976;-48
2023/05/03 05:15:00;;;;;;;;;;;;;;;18.04;61.52;98711.44;2055541;28;19930;-48
2023/05/03 05:16:03;;;;;;;;;;;;;;;18.04;61.57;98710.59;2057165;28;19992;-51
2023/05/03 05:17:05;;;;;;;;;;;;;;;18.04;61.53;98708.75;2056277;28;19991;-48
2023/05/03 05:18:08;;;;;;;;;;;;;;;18.04;61.77;98707.91;2056563;28;19929;-46
2023/05/03 05:19:08;;;;;;;;;;;;;;;18.05;61.59;98712.25;2054436;28;20045;-48
2023/05/03 05:20:11;;;;;;;;;;;;;;;18.06;61.63;98714.75;2055510;28;19934;-49
2023/05/03 05:21:13;;;;;;;;;;;;;;;18.05;61.74;98717.63;2053844;28;19965;-48